createdAt,value
2022-08-17T00:00:42.878Z,19.94
2022-08-17T00:03:23.983Z,19.93
2022-08-17T00:05:57.767Z,19.92
2022-08-17T00:08:31.303Z,19.90
2022-08-17T00:10:59.825Z,19.89
2022-08-17T00:13:34.389Z,19.87
2022-08-17T00:16:09.147Z,19.86
2022-08-17T00:19:06.625Z,19.84
2022-08-17T00:21:26.300Z,19.83
2022-08-17T00:24:15.794Z,19.81
2022-08-17T00:26:44.982Z,19.80
2022-08-17T00:29:17.901Z,19.79
2022-08-17T00:31:49.599Z,19.78
2022-08-17T00:34:18.138Z,19.78
2022-08-17T00:36:46.090Z,19.78
2022-08-17T00:39:13.950Z,19.78
2022-08-17T00:41:42.752Z,19.78
2022-08-17T00:44:12.625Z,19.78
2022-08-17T00:46:43.272Z,19.79
2022-08-17T00:49:13.580Z,19.80
2022-08-17T00:51:51.353Z,19.81
2022-08-17T00:54:25.381Z,19.83
2022-08-17T00:57:17.623Z,19.85
2022-08-17T01:00:02.368Z,19.85
2022-08-17T01:02:42.605Z,19.86
2022-08-17T01:05:25.564Z,19.87
2022-08-17T01:07:54.360Z,19.86
2022-08-17T01:10:58.798Z,19.86
2022-08-17T01:13:21.224Z,19.86
2022-08-17T01:15:59.303Z,19.84
2022-08-17T01:18:28.591Z,19.84
2022-08-17T01:20:58.775Z,19.82
2022-08-17T01:23:28.947Z,19.80
2022-08-17T01:26:02.066Z,19.79
2022-08-17T01:28:40.701Z,19.77
2022-08-17T01:31:24.952Z,19.75
2022-08-17T01:33:53.589Z,19.72
2022-08-17T01:36:21.963Z,19.69
2022-08-17T01:38:50.121Z,19.67
2022-08-17T01:41:21.564Z,19.65
2022-08-17T01:43:55.244Z,19.64
2022-08-17T01:46:29.184Z,19.62
2022-08-17T01:48:58.153Z,19.59
2022-08-17T01:51:32.863Z,19.57
2022-08-17T01:54:05.872Z,19.54
2022-08-17T01:56:36.937Z,19.53
2022-08-17T01:59:05.312Z,19.50
2022-08-17T02:01:34.713Z,19.48
2022-08-17T02:04:04.947Z,19.45
2022-08-17T02:06:52.632Z,19.43
2022-08-17T02:09:25.956Z,19.41
2022-08-17T02:11:56.433Z,19.39
2022-08-17T02:14:25.154Z,19.38
2022-08-17T02:16:53.898Z,19.36
2022-08-17T02:19:22.868Z,19.33
2022-08-17T02:21:53.526Z,19.30
2022-08-17T02:24:58.685Z,19.26
2022-08-17T02:27:13.922Z,19.23
2022-08-17T02:29:41.848Z,19.23
2022-08-17T02:32:27.333Z,19.21
2022-08-17T02:34:57.593Z,19.19
2022-08-17T02:37:27.092Z,19.17
2022-08-17T02:39:57.384Z,19.15
2022-08-17T02:42:34.112Z,19.15
2022-08-17T02:45:04.522Z,19.12
2022-08-17T02:47:32.999Z,19.11
2022-08-17T02:50:00.895Z,19.11
2022-08-17T02:52:43.714Z,19.10
2022-08-17T02:55:19.125Z,19.09
2022-08-17T02:57:47.196Z,19.08
2022-08-17T03:00:29.007Z,19.06
2022-08-17T03:02:57.970Z,19.05
2022-08-17T03:05:28.308Z,19.02
2022-08-17T03:07:56.399Z,18.99
2022-08-17T03:10:25.670Z,18.97
2022-08-17T03:12:54.417Z,18.95
2022-08-17T03:15:28.401Z,18.92
2022-08-17T03:17:57.131Z,18.91
2022-08-17T03:20:28.759Z,18.90
2022-08-17T03:23:01.991Z,18.89
2022-08-17T03:25:34.534Z,18.88
2022-08-17T03:28:04.111Z,18.87
2022-08-17T03:30:32.858Z,18.85
2022-08-17T03:33:03.333Z,18.85
2022-08-17T03:35:33.582Z,18.84
2022-08-17T03:38:01.563Z,18.83
2022-08-17T03:40:55.516Z,18.81
2022-08-17T03:43:20.841Z,18.79
2022-08-17T03:46:10.083Z,18.78
2022-08-17T03:49:13.998Z,18.77
2022-08-17T03:52:01.141Z,18.75
2022-08-17T03:54:47.905Z,18.75
2022-08-17T03:57:16.718Z,18.74
2022-08-17T03:59:45.358Z,18.74
2022-08-17T04:02:18.760Z,18.73
2022-08-17T04:04:50.974Z,18.73
2022-08-17T04:07:21.698Z,18.74
2022-08-17T04:09:49.806Z,18.74
2022-08-17T04:12:23.664Z,18.74
2022-08-17T04:14:54.695Z,18.76
2022-08-17T04:17:30.924Z,18.77
2022-08-17T04:19:58.838Z,18.78
2022-08-17T04:22:31.906Z,18.79
2022-08-17T04:25:16.825Z,18.80
2022-08-17T04:27:44.649Z,18.82
2022-08-17T04:30:13.490Z,18.83
2022-08-17T04:33:05.527Z,18.85
2022-08-17T04:35:38.780Z,18.87
2022-08-17T04:38:12.306Z,18.90
2022-08-17T04:41:13.311Z,18.92
2022-08-17T04:43:42.998Z,18.94
2022-08-17T04:46:14.693Z,18.97
2022-08-17T04:48:46.198Z,19.00
2022-08-17T04:51:20.862Z,19.03
2022-08-17T04:53:54.097Z,19.05
2022-08-17T04:56:26.049Z,19.09
2022-08-17T04:59:00.265Z,19.14
2022-08-17T05:01:31.553Z,19.19
2022-08-17T05:04:32.196Z,19.24
2022-08-17T05:06:52.482Z,19.31
2022-08-17T05:09:23.557Z,19.38
2022-08-17T05:11:56.157Z,19.45
2022-08-17T05:14:33.534Z,19.53
2022-08-17T05:17:07.140Z,19.61
2022-08-17T05:19:39.578Z,19.69
2022-08-17T05:22:08.051Z,19.78
2022-08-17T05:24:40.795Z,19.87
2022-08-17T05:27:17.829Z,19.97
2022-08-17T05:29:46.841Z,20.07
2022-08-17T05:32:37.920Z,20.17
2022-08-17T05:35:05.354Z,20.29
2022-08-17T05:37:33.579Z,20.37
2022-08-17T05:40:01.581Z,20.48
2022-08-17T05:42:29.411Z,20.58
2022-08-17T05:44:58.862Z,20.70
2022-08-17T05:47:27.388Z,20.80
2022-08-17T05:49:55.725Z,20.91
2022-08-17T05:52:42.214Z,21.02
2022-08-17T05:55:28.642Z,21.12
2022-08-17T05:58:19.831Z,21.23
2022-08-17T06:01:00.988Z,21.35
2022-08-17T06:03:35.096Z,21.47
2022-08-17T06:06:14.514Z,21.57
2022-08-17T06:08:56.732Z,21.67
2022-08-17T06:11:31.532Z,21.78
2022-08-17T06:14:20.160Z,21.86
2022-08-17T06:16:54.553Z,21.96
2022-08-17T06:19:37.663Z,22.05
2022-08-17T06:22:07.624Z,22.14
2022-08-17T06:24:38.659Z,22.22
2022-08-17T06:27:13.645Z,22.33
2022-08-17T06:29:45.910Z,22.43
2022-08-17T06:32:14.620Z,22.53
2022-08-17T06:34:44.475Z,22.64
2022-08-17T06:37:42.293Z,22.75
2022-08-17T06:40:29.047Z,22.90
2022-08-17T06:43:23.524Z,23.02
2022-08-17T06:45:59.260Z,23.14
2022-08-17T06:48:52.556Z,23.26
2022-08-17T06:51:33.471Z,23.38
2022-08-17T06:54:25.592Z,23.49
2022-08-17T06:57:15.114Z,23.59
2022-08-17T06:59:56.291Z,23.64
2022-08-17T07:02:52.275Z,23.67
2022-08-17T07:05:39.784Z,23.68
2022-08-17T07:08:11.866Z,23.69
2022-08-17T07:10:47.312Z,23.69
2022-08-17T07:13:25.669Z,23.72
2022-08-17T07:16:01.104Z,23.74
2022-08-17T07:18:33.248Z,23.75
2022-08-17T07:21:26.728Z,23.78
2022-08-17T07:24:26.365Z,23.84
2022-08-17T07:27:21.458Z,23.94
2022-08-17T07:29:57.153Z,24.04
2022-08-17T07:32:46.190Z,24.13
2022-08-17T07:35:22.180Z,24.23
2022-08-17T07:38:24.941Z,24.31
2022-08-17T07:40:58.232Z,24.41
2022-08-17T07:43:39.384Z,24.50
2022-08-17T07:46:44.100Z,24.59
2022-08-17T07:49:32.863Z,24.71
2022-08-17T07:52:23.912Z,24.83
2022-08-17T07:54:58.120Z,24.95
2022-08-17T07:57:33.939Z,25.06
2022-08-17T08:00:02.015Z,25.17
2022-08-17T08:02:44.039Z,25.29
2022-08-17T08:05:49.178Z,25.42
2022-08-17T08:08:26.855Z,25.52
2022-08-17T08:11:34.912Z,25.58
2022-08-17T08:14:28.712Z,25.64
2022-08-17T08:17:09.227Z,25.69
2022-08-17T08:19:37.411Z,25.76
2022-08-17T08:22:11.710Z,25.82
2022-08-17T08:24:45.500Z,25.89
2022-08-17T08:27:50.273Z,25.96
2022-08-17T08:30:21.534Z,26.06
2022-08-17T08:32:57.237Z,26.13
2022-08-17T08:35:44.565Z,26.20
2022-08-17T08:38:37.146Z,26.27
2022-08-17T08:41:46.130Z,26.36
2022-08-17T08:45:00.232Z,26.46
2022-08-17T08:47:36.820Z,26.56
2022-08-17T08:50:37.554Z,26.66
2022-08-17T08:53:16.517Z,26.75
2022-08-17T08:56:03.417Z,26.82
2022-08-17T08:59:04.315Z,26.86
2022-08-17T09:01:56.460Z,26.87
2022-08-17T09:05:12.493Z,26.92
2022-08-17T09:07:51.441Z,26.94
2022-08-17T09:10:30.860Z,26.93
2022-08-17T09:13:14.159Z,26.90
2022-08-17T09:15:57.392Z,26.86
2022-08-17T09:19:00.285Z,26.82
2022-08-17T09:21:33.955Z,26.77
2022-08-17T09:24:13.032Z,26.73
2022-08-17T09:27:02.479Z,26.68
2022-08-17T09:29:37.604Z,26.63
2022-08-17T09:32:32.752Z,26.58
2022-08-17T09:35:06.323Z,26.52
2022-08-17T09:37:50.765Z,26.49
2022-08-17T09:40:38.396Z,26.47
2022-08-17T09:43:27.985Z,26.50
2022-08-17T09:46:02.519Z,26.55
2022-08-17T09:48:47.186Z,26.63
2022-08-17T09:51:40.302Z,26.76
2022-08-17T09:54:44.845Z,26.91
2022-08-17T09:57:31.729Z,27.00
2022-08-17T10:00:18.967Z,27.04
2022-08-17T10:03:09.786Z,27.07
2022-08-17T10:06:00.896Z,27.06
2022-08-17T10:08:32.311Z,27.07
2022-08-17T10:11:20.257Z,27.10
2022-08-17T10:14:02.816Z,27.18
2022-08-17T10:17:01.598Z,27.27
2022-08-17T10:19:38.434Z,27.35
2022-08-17T10:22:53.048Z,27.43
2022-08-17T10:25:54.567Z,27.48
2022-08-17T10:28:29.807Z,27.54
2022-08-17T10:31:33.266Z,27.60
2022-08-17T10:34:12.641Z,27.65
2022-08-17T10:36:47.589Z,27.69
2022-08-17T10:39:20.829Z,27.73
2022-08-17T10:41:53.725Z,27.77
2022-08-17T10:45:06.990Z,27.82
2022-08-17T10:48:05.156Z,27.86
2022-08-17T10:50:58.273Z,27.92
2022-08-17T10:53:32.221Z,27.96
2022-08-17T10:56:12.270Z,28.01
2022-08-17T10:58:49.635Z,28.07
2022-08-17T11:01:18.444Z,28.14
2022-08-17T11:03:58.142Z,28.20
2022-08-17T11:06:51.240Z,28.27
2022-08-17T11:09:42.328Z,28.33
2022-08-17T11:12:37.790Z,28.35
2022-08-17T11:15:11.617Z,28.33
2022-08-17T11:18:05.278Z,28.32
2022-08-17T11:21:08.785Z,28.32
2022-08-17T11:23:51.658Z,28.32
2022-08-17T11:26:27.832Z,28.34
2022-08-17T11:29:03.848Z,28.34
2022-08-17T11:31:44.526Z,28.33
2022-08-17T11:34:21.776Z,28.31
2022-08-17T11:37:42.399Z,28.30
2022-08-17T11:40:38.660Z,28.31
2022-08-17T11:43:32.914Z,28.31
2022-08-17T11:46:17.031Z,28.29
2022-08-17T11:49:25.409Z,28.30
2022-08-17T11:51:53.343Z,28.34
2022-08-17T11:54:33.249Z,28.38
2022-08-17T11:57:27.231Z,28.41
2022-08-17T12:00:06.874Z,28.44
2022-08-17T12:02:48.465Z,28.48
2022-08-17T12:05:25.894Z,28.49
2022-08-17T12:08:11.808Z,28.50
2022-08-17T12:10:54.671Z,28.51
2022-08-17T12:13:44.947Z,28.54
2022-08-17T12:16:18.220Z,28.58
2022-08-17T12:18:58.700Z,28.64
2022-08-17T12:21:40.868Z,28.70
2022-08-17T12:24:31.465Z,28.76
2022-08-17T12:27:01.984Z,28.84
2022-08-17T12:29:35.483Z,28.91
2022-08-17T12:32:17.603Z,28.96
2022-08-17T12:34:47.650Z,29.00
2022-08-17T12:37:31.640Z,29.01
2022-08-17T12:40:04.916Z,29.03
2022-08-17T12:42:37.569Z,29.05
2022-08-17T12:45:24.345Z,29.06
2022-08-17T12:48:09.282Z,29.07
2022-08-17T12:50:46.689Z,29.09
2022-08-17T12:53:17.549Z,29.12
2022-08-17T12:55:46.409Z,29.15
2022-08-17T12:58:21.716Z,29.19
2022-08-17T13:01:00.255Z,29.24
2022-08-17T13:03:38.837Z,29.28
2022-08-17T13:06:09.665Z,29.30
2022-08-17T13:08:47.819Z,29.32
2022-08-17T13:11:16.835Z,29.32
2022-08-17T13:14:07.656Z,29.32
2022-08-17T13:16:36.459Z,29.31
2022-08-17T13:19:13.048Z,29.31
2022-08-17T13:21:50.280Z,29.30
2022-08-17T13:24:25.921Z,29.27
2022-08-17T13:27:08.272Z,29.25
2022-08-17T13:29:45.812Z,29.24
2022-08-17T13:32:31.219Z,29.27
2022-08-17T13:35:29.638Z,29.28
2022-08-17T13:38:39.566Z,29.32
2022-08-17T13:41:08.040Z,29.39
2022-08-17T13:43:45.863Z,29.45
2022-08-17T13:46:28.651Z,29.48
2022-08-17T13:49:07.184Z,29.50
2022-08-17T13:51:46.954Z,29.52
2022-08-17T13:54:30.422Z,29.53
2022-08-17T13:57:00.668Z,29.52
2022-08-17T13:59:55.011Z,29.50
2022-08-17T14:02:25.838Z,29.46
2022-08-17T14:04:58.444Z,29.44
2022-08-17T14:07:31.429Z,29.40
2022-08-17T14:10:05.450Z,29.35
2022-08-17T14:12:36.279Z,29.33
2022-08-17T14:15:05.061Z,29.32
2022-08-17T14:17:38.064Z,29.33
2022-08-17T14:20:12.355Z,29.35
2022-08-17T14:22:45.055Z,29.37
2022-08-17T14:25:15.815Z,29.38
2022-08-17T14:27:52.996Z,29.39
2022-08-17T14:30:25.361Z,29.39
2022-08-17T14:32:54.561Z,29.37
2022-08-17T14:35:24.053Z,29.34
2022-08-17T14:37:52.801Z,29.31
2022-08-17T14:40:24.635Z,29.29
2022-08-17T14:42:55.390Z,29.28
2022-08-17T14:45:29.881Z,29.25
2022-08-17T14:48:04.436Z,29.21
2022-08-17T14:50:35.462Z,29.16
2022-08-17T14:53:06.065Z,29.11
2022-08-17T14:55:34.812Z,29.07
2022-08-17T14:58:04.289Z,29.03
2022-08-17T15:00:33.032Z,28.99
2022-08-17T15:03:02.287Z,28.92
2022-08-17T15:05:34.350Z,28.86
2022-08-17T15:08:03.868Z,28.79
2022-08-17T15:10:33.079Z,28.73
2022-08-17T15:13:01.259Z,28.67
2022-08-17T15:15:29.836Z,28.60
2022-08-17T15:17:58.889Z,28.53
2022-08-17T15:20:29.978Z,28.47
2022-08-17T15:22:59.646Z,28.41
2022-08-17T15:25:30.392Z,28.35
2022-08-17T15:27:59.560Z,28.28
2022-08-17T15:30:28.680Z,28.21
2022-08-17T15:32:58.940Z,28.16
2022-08-17T15:35:32.113Z,28.08
2022-08-17T15:38:11.779Z,28.03
2022-08-17T15:40:46.627Z,27.97
2022-08-17T15:43:27.090Z,27.91
2022-08-17T15:45:59.866Z,27.86
2022-08-17T15:48:41.690Z,27.81
2022-08-17T15:51:28.697Z,27.74
2022-08-17T15:54:04.598Z,27.68
2022-08-17T15:56:46.613Z,27.63
2022-08-17T15:59:14.572Z,27.58
2022-08-17T16:03:13.528Z,27.52
2022-08-17T16:04:31.918Z,27.47
2022-08-17T16:07:00.434Z,27.41
2022-08-17T16:09:28.703Z,27.36
2022-08-17T16:11:56.897Z,27.31
2022-08-17T16:14:33.567Z,27.25
2022-08-17T16:17:04.994Z,27.20
2022-08-17T16:19:52.908Z,27.14
2022-08-17T16:22:37.712Z,27.10
2022-08-17T16:25:12.576Z,27.07
2022-08-17T16:27:41.580Z,27.04
2022-08-17T16:30:15.048Z,27.01
2022-08-17T16:32:45.455Z,27.01
2022-08-17T16:35:17.507Z,27.01
2022-08-17T16:37:45.829Z,27.02
2022-08-17T16:40:16.150Z,27.02
2022-08-17T16:42:48.469Z,27.02
2022-08-17T16:45:19.209Z,27.02
2022-08-17T16:47:49.160Z,27.02
2022-08-17T16:50:20.646Z,27.00
2022-08-17T16:52:50.062Z,26.99
2022-08-17T16:55:21.160Z,26.97
2022-08-17T16:57:50.310Z,26.94
2022-08-17T17:00:21.142Z,26.91
2022-08-17T17:02:49.782Z,26.88
2022-08-17T17:05:40.460Z,26.85
2022-08-17T17:08:31.477Z,26.81
2022-08-17T17:11:09.753Z,26.77
2022-08-17T17:13:47.390Z,26.73
2022-08-17T17:16:31.121Z,26.67
2022-08-17T17:19:07.873Z,26.63
2022-08-17T17:22:11.270Z,26.56
2022-08-17T17:24:51.639Z,26.49
2022-08-17T17:27:38.251Z,26.42
2022-08-17T17:30:06.637Z,26.34
2022-08-17T17:32:43.713Z,26.28
2022-08-17T17:35:17.831Z,26.19
2022-08-17T17:37:47.194Z,26.10
2022-08-17T17:40:40.306Z,26.01
2022-08-17T17:43:37.261Z,25.90
2022-08-17T17:46:27.115Z,25.78
2022-08-17T17:49:00.660Z,25.66
2022-08-17T17:52:08.765Z,25.57
2022-08-17T17:54:53.003Z,25.44
2022-08-17T17:57:44.303Z,25.34
2022-08-17T18:00:38.925Z,25.23
2022-08-17T18:03:27.358Z,25.14
2022-08-17T18:06:00.590Z,25.06
2022-08-17T18:08:36.680Z,25.00
2022-08-17T18:11:25.376Z,24.94
2022-08-17T18:13:59.394Z,24.89
2022-08-17T18:16:32.975Z,24.85
2022-08-17T18:19:01.342Z,24.79
2022-08-17T18:21:38.098Z,24.75
2022-08-17T18:24:10.894Z,24.71
2022-08-17T18:26:44.708Z,24.66
2022-08-17T18:29:31.897Z,24.60
2022-08-17T18:32:18.923Z,24.55
2022-08-17T18:34:49.859Z,24.50
2022-08-17T18:37:33.118Z,24.46
2022-08-17T18:40:27.255Z,24.41
2022-08-17T18:43:03.360Z,24.36
2022-08-17T18:45:51.278Z,24.32
2022-08-17T18:48:29.960Z,24.27
2022-08-17T18:51:40.511Z,24.23
2022-08-17T18:54:14.465Z,24.18
2022-08-17T18:56:52.755Z,24.14
2022-08-17T18:59:33.860Z,24.09
2022-08-17T19:02:22.050Z,24.05
2022-08-17T19:05:29.452Z,23.99
2022-08-17T19:08:15.381Z,23.93
2022-08-17T19:10:47.262Z,23.87
2022-08-17T19:13:24.457Z,23.82
2022-08-17T19:16:12.010Z,23.77
2022-08-17T19:18:49.910Z,23.72
2022-08-17T19:21:33.867Z,23.67
2022-08-17T19:24:28.376Z,23.62
2022-08-17T19:27:14.641Z,23.54
2022-08-17T19:29:51.731Z,23.48
2022-08-17T19:32:31.724Z,23.41
2022-08-17T19:35:01.436Z,23.34
2022-08-17T19:38:01.016Z,23.28
2022-08-17T19:40:52.200Z,23.21
2022-08-17T19:43:21.095Z,23.16
2022-08-17T19:46:06.151Z,23.11
2022-08-17T19:48:53.769Z,23.06
2022-08-17T19:51:36.287Z,23.01
2022-08-17T19:54:16.191Z,22.96
2022-08-17T19:57:13.231Z,22.91
2022-08-17T19:59:50.900Z,22.85
2022-08-17T20:02:37.682Z,22.80
2022-08-17T20:05:21.467Z,22.74
2022-08-17T20:07:58.162Z,22.69
2022-08-17T20:10:32.455Z,22.63
2022-08-17T20:13:11.457Z,22.57
2022-08-17T20:15:43.248Z,22.52
2022-08-17T20:18:20.067Z,22.46
2022-08-17T20:21:19.900Z,22.42
2022-08-17T20:24:17.837Z,22.35
2022-08-17T20:26:58.183Z,22.30
2022-08-17T20:29:37.423Z,22.25
2022-08-17T20:32:18.292Z,22.19
2022-08-17T20:34:47.773Z,22.14
2022-08-17T20:37:15.675Z,22.10
2022-08-17T20:39:43.561Z,22.06
2022-08-17T20:42:20.765Z,22.03
2022-08-17T20:44:52.438Z,21.99
2022-08-17T20:47:26.979Z,21.96
2022-08-17T20:50:08.791Z,21.93
2022-08-17T20:52:56.145Z,21.90
2022-08-17T20:55:52.045Z,21.86
2022-08-17T20:58:30.049Z,21.81
2022-08-17T21:01:00.533Z,21.78
2022-08-17T21:03:40.031Z,21.74
2022-08-17T21:06:21.463Z,21.70
2022-08-17T21:09:29.734Z,21.66
2022-08-17T21:12:05.485Z,21.62
2022-08-17T21:15:00.264Z,21.59
2022-08-17T21:17:32.378Z,21.55
2022-08-17T21:20:11.550Z,21.52
2022-08-17T21:22:49.096Z,21.49
2022-08-17T21:25:46.531Z,21.46
2022-08-17T21:28:36.403Z,21.41
2022-08-17T21:31:50.847Z,21.39
2022-08-17T21:34:27.632Z,21.38
2022-08-17T21:37:16.477Z,21.37
2022-08-17T21:39:50.711Z,21.35
2022-08-17T21:42:25.243Z,21.33
2022-08-17T21:44:58.326Z,21.32
2022-08-17T21:47:29.531Z,21.32
2022-08-17T21:50:24.031Z,21.32
2022-08-17T21:52:54.296Z,21.31
2022-08-17T21:55:29.653Z,21.30
2022-08-17T21:58:13.727Z,21.30
2022-08-17T22:00:45.718Z,21.29
2022-08-17T22:03:26.235Z,21.28
2022-08-17T22:05:54.264Z,21.26
2022-08-17T22:08:26.063Z,21.24
2022-08-17T22:11:02.059Z,21.22
2022-08-17T22:13:30.235Z,21.21
2022-08-17T22:16:15.410Z,21.19
2022-08-17T22:18:58.219Z,21.17
2022-08-17T22:21:27.036Z,21.16
2022-08-17T22:24:05.478Z,21.15
2022-08-17T22:27:11.385Z,21.14
2022-08-17T22:29:53.251Z,21.12
2022-08-17T22:32:42.400Z,21.09
2022-08-17T22:35:28.947Z,21.07
2022-08-17T22:37:57.736Z,21.05
2022-08-17T22:40:34.592Z,21.01
2022-08-17T22:43:03.857Z,20.98
2022-08-17T22:45:35.298Z,20.96
2022-08-17T22:48:03.595Z,20.94
2022-08-17T22:50:35.747Z,20.92
2022-08-17T22:53:33.573Z,20.90
2022-08-17T22:56:20.649Z,20.88
2022-08-17T22:59:15.107Z,20.87
2022-08-17T23:01:45.679Z,20.84
2022-08-17T23:04:32.258Z,20.82
2022-08-17T23:07:00.871Z,20.79
2022-08-17T23:09:29.613Z,20.77
2022-08-17T23:11:58.965Z,20.75
2022-08-17T23:14:31.842Z,20.72
2022-08-17T23:17:00.870Z,20.69
2022-08-17T23:19:31.986Z,20.67
2022-08-17T23:22:02.891Z,20.64
2022-08-17T23:24:35.801Z,20.60
2022-08-17T23:27:07.703Z,20.57
2022-08-17T23:29:39.581Z,20.54
2022-08-17T23:32:10.210Z,20.52
2022-08-17T23:34:40.070Z,20.49
2022-08-17T23:37:10.457Z,20.47
2022-08-17T23:39:39.737Z,20.45
2022-08-17T23:42:11.198Z,20.42
2022-08-17T23:44:42.165Z,20.40
2022-08-17T23:47:11.317Z,20.37
2022-08-17T23:49:41.501Z,20.34
2022-08-17T23:52:15.004Z,20.32
2022-08-17T23:54:47.823Z,20.30
2022-08-17T23:57:19.400Z,20.28
2022-08-17T23:59:47.394Z,20.27
